createdAt,value
2022-08-18T00:02:04.561Z,9.05
2022-08-18T00:04:35.690Z,9.30
2022-08-18T00:07:04.276Z,9.90
2022-08-18T00:09:32.900Z,9.85
2022-08-18T00:12:02.908Z,9.43
2022-08-18T00:14:30.386Z,9.43
2022-08-18T00:16:57.944Z,9.20
2022-08-18T00:19:45.457Z,9.98
2022-08-18T00:22:16.015Z,9.52
2022-08-18T00:24:47.814Z,9.95
2022-08-18T00:27:21.619Z,9.85
2022-08-18T00:29:49.729Z,9.20
2022-08-18T00:32:18.825Z,9.80
2022-08-18T00:34:46.271Z,9.82
2022-08-18T00:37:13.716Z,9.80
2022-08-18T00:39:46.364Z,10.55
2022-08-18T00:42:28.901Z,10.30
2022-08-18T00:45:00.768Z,10.20
2022-08-18T00:47:42.662Z,10.70
2022-08-18T00:50:15.360Z,10.23
2022-08-18T00:52:44.936Z,10.07
2022-08-18T00:55:12.341Z,10.40
2022-08-18T00:57:42.392Z,10.32
2022-08-18T01:00:11.983Z,10.52
2022-08-18T01:02:45.036Z,10.43
2022-08-18T01:05:17.348Z,11.20
2022-08-18T01:07:47.345Z,10.10
2022-08-18T01:10:17.039Z,10.63
2022-08-18T01:12:47.206Z,11.00
2022-08-18T01:15:29.357Z,10.65
2022-08-18T01:18:16.427Z,10.05
2022-08-18T01:21:13.384Z,10.70
2022-08-18T01:23:42.393Z,10.65
2022-08-18T01:26:09.392Z,10.52
2022-08-18T01:28:39.493Z,10.70
2022-08-18T01:31:07.708Z,10.90
2022-08-18T01:33:38.905Z,10.73
2022-08-18T01:36:14.340Z,10.90
2022-08-18T01:38:43.662Z,10.02
2022-08-18T01:41:28.563Z,11.05
2022-08-18T01:43:58.444Z,10.70
2022-08-18T01:46:26.136Z,10.88
2022-08-18T01:48:53.678Z,11.20
2022-08-18T01:51:39.417Z,11.05
2022-08-18T01:54:10.729Z,11.18
2022-08-18T01:56:38.308Z,11.75
2022-08-18T01:59:06.378Z,11.35
2022-08-18T02:01:38.840Z,11.90
2022-08-18T02:04:34.414Z,12.13
2022-08-18T02:07:04.314Z,11.48
2022-08-18T02:09:33.484Z,11.55
2022-08-18T02:12:02.134Z,11.02
2022-08-18T02:14:31.226Z,11.57
2022-08-18T02:17:02.267Z,11.57
2022-08-18T02:19:34.364Z,11.63
2022-08-18T02:22:02.326Z,11.30
2022-08-18T02:24:29.815Z,11.48
2022-08-18T02:26:58.786Z,11.80
2022-08-18T02:29:26.170Z,11.27
2022-08-18T02:31:53.886Z,11.50
2022-08-18T02:34:21.311Z,11.50
2022-08-18T02:36:48.686Z,11.85
2022-08-18T02:39:16.059Z,11.93
2022-08-18T02:41:43.433Z,11.95
2022-08-18T02:44:12.580Z,11.98
2022-08-18T02:46:40.107Z,12.27
2022-08-18T02:49:08.386Z,11.48
2022-08-18T02:51:36.280Z,11.05
2022-08-18T02:54:09.159Z,11.80
2022-08-18T02:56:41.048Z,11.70
2022-08-18T02:59:13.738Z,12.68
2022-08-18T03:01:42.824Z,11.57
2022-08-18T03:04:12.720Z,12.75
2022-08-18T03:06:40.171Z,11.82
2022-08-18T03:09:09.926Z,11.52
2022-08-18T03:11:38.163Z,12.07
2022-08-18T03:14:06.490Z,12.48
2022-08-18T03:16:54.072Z,12.75
2022-08-18T03:19:23.629Z,12.50
2022-08-18T03:21:52.449Z,12.70
2022-08-18T03:24:22.699Z,12.82
2022-08-18T03:26:51.695Z,12.68
2022-08-18T03:29:19.429Z,12.88
2022-08-18T03:31:48.480Z,12.48
2022-08-18T03:34:17.756Z,12.13
2022-08-18T03:36:45.485Z,11.90
2022-08-18T03:39:14.039Z,12.93
2022-08-18T03:41:44.449Z,13.27
2022-08-18T03:44:27.809Z,13.00
2022-08-18T03:46:57.320Z,13.55
2022-08-18T03:49:26.741Z,13.13
2022-08-18T03:51:54.523Z,13.80
2022-08-18T03:54:21.966Z,13.30
2022-08-18T03:56:50.191Z,13.00
2022-08-18T03:59:19.728Z,12.82
2022-08-18T04:01:48.893Z,13.68
2022-08-18T04:04:19.930Z,12.65
2022-08-18T04:06:51.049Z,13.63
2022-08-18T04:09:20.209Z,13.00
2022-08-18T04:11:47.734Z,13.45
2022-08-18T04:14:18.061Z,13.73
2022-08-18T04:16:46.216Z,14.02
2022-08-18T04:19:14.280Z,13.98
2022-08-18T04:21:55.781Z,15.27
2022-08-18T04:24:23.183Z,14.35
2022-08-18T04:26:50.863Z,15.15
2022-08-18T04:29:20.936Z,14.55
2022-08-18T04:31:48.959Z,14.07
2022-08-18T04:34:16.948Z,15.55
2022-08-18T04:36:44.672Z,15.70
2022-08-18T04:39:14.464Z,16.35
2022-08-18T04:41:44.058Z,14.80
2022-08-18T04:44:12.705Z,16.48
2022-08-18T04:46:42.843Z,16.52
2022-08-18T04:49:11.074Z,16.98
2022-08-18T04:52:36.587Z,16.10
2022-08-18T04:54:29.314Z,16.02
2022-08-18T04:56:56.694Z,15.45
2022-08-18T04:59:24.910Z,14.80
2022-08-18T05:01:52.328Z,13.88
2022-08-18T05:04:19.711Z,14.35
2022-08-18T05:06:47.467Z,13.15
2022-08-18T05:09:16.613Z,14.57
2022-08-18T05:11:51.550Z,13.85
2022-08-18T05:14:20.081Z,14.55
2022-08-18T05:16:49.687Z,13.40
2022-08-18T05:19:19.803Z,14.27
2022-08-18T05:21:50.774Z,13.98
2022-08-18T05:24:19.201Z,14.13
2022-08-18T05:26:46.742Z,13.40
2022-08-18T05:29:18.991Z,14.20
2022-08-18T05:31:48.218Z,13.48
2022-08-18T05:34:16.099Z,13.75
2022-08-18T05:36:59.074Z,14.95
2022-08-18T05:39:29.666Z,13.57
2022-08-18T05:42:06.326Z,14.45
2022-08-18T05:44:37.578Z,13.63
2022-08-18T05:47:07.367Z,14.05
2022-08-18T05:49:35.800Z,13.18
2022-08-18T05:52:07.006Z,13.70
2022-08-18T05:54:56.337Z,14.05
2022-08-18T05:57:27.127Z,14.65
2022-08-18T05:59:56.082Z,12.93
2022-08-18T06:02:32.271Z,13.77
2022-08-18T06:05:02.801Z,14.25
2022-08-18T06:07:33.769Z,14.65
2022-08-18T06:10:01.495Z,13.95
2022-08-18T06:12:33.441Z,14.95
2022-08-18T06:15:14.372Z,14.27
2022-08-18T06:18:09.114Z,14.63
2022-08-18T06:20:47.120Z,12.75
2022-08-18T06:23:22.276Z,13.15
2022-08-18T06:25:58.939Z,13.82
2022-08-18T06:28:40.387Z,14.80
2022-08-18T06:31:17.036Z,14.63
2022-08-18T06:33:51.240Z,14.35
2022-08-18T06:36:23.948Z,14.52
2022-08-18T06:39:02.980Z,14.38
2022-08-18T06:41:41.652Z,14.77
2022-08-18T06:44:15.971Z,16.02
2022-08-18T06:46:47.306Z,15.80
2022-08-18T06:49:22.817Z,14.88
2022-08-18T06:51:50.222Z,14.90
2022-08-18T06:54:29.283Z,15.25
2022-08-18T06:56:57.638Z,14.60
2022-08-18T06:59:27.493Z,13.65
2022-08-18T07:02:01.557Z,14.60
2022-08-18T07:05:00.357Z,12.95
2022-08-18T07:07:39.524Z,14.30
2022-08-18T07:10:33.159Z,13.98
2022-08-18T07:13:08.446Z,14.13
2022-08-18T07:15:36.340Z,13.65
2022-08-18T07:18:06.283Z,13.82
2022-08-18T07:20:43.337Z,13.35
2022-08-18T07:23:22.585Z,11.73
2022-08-18T07:26:00.122Z,12.55
2022-08-18T07:28:32.669Z,13.13
2022-08-18T07:31:17.305Z,11.50
2022-08-18T07:33:50.557Z,11.65
2022-08-18T07:36:18.211Z,12.93
2022-08-18T07:38:49.242Z,12.75
2022-08-18T07:41:20.875Z,13.05
2022-08-18T07:43:59.325Z,12.35
2022-08-18T07:46:32.413Z,11.63
2022-08-18T07:48:59.917Z,11.73
2022-08-18T07:51:43.375Z,11.93
2022-08-18T07:54:47.775Z,12.23
2022-08-18T07:57:16.396Z,12.63
2022-08-18T07:59:50.438Z,11.63
2022-08-18T08:02:29.850Z,12.00
2022-08-18T08:05:02.757Z,12.40
2022-08-18T08:07:32.160Z,11.90
2022-08-18T08:10:10.298Z,11.35
2022-08-18T08:12:44.919Z,11.48
2022-08-18T08:15:18.601Z,12.38
2022-08-18T08:18:00.999Z,12.07
2022-08-18T08:20:33.195Z,11.10
2022-08-18T08:23:14.952Z,11.20
2022-08-18T08:25:51.634Z,12.30
2022-08-18T08:28:31.421Z,11.77
2022-08-18T08:31:33.243Z,11.07
2022-08-18T08:33:57.059Z,11.05
2022-08-18T08:36:26.726Z,11.70
2022-08-18T08:38:57.011Z,11.55
2022-08-18T08:41:30.453Z,10.70
2022-08-18T08:44:03.943Z,11.63
2022-08-18T08:46:37.819Z,10.90
2022-08-18T08:49:11.868Z,10.77
2022-08-18T08:51:41.140Z,11.68
2022-08-18T08:54:13.478Z,10.50
2022-08-18T08:56:44.260Z,10.75
2022-08-18T08:59:15.267Z,10.15
2022-08-18T09:01:47.752Z,9.73
2022-08-18T09:04:22.495Z,10.32
2022-08-18T09:06:57.797Z,10.57
2022-08-18T09:09:50.562Z,9.82
2022-08-18T09:12:26.683Z,9.75
2022-08-18T09:15:09.656Z,10.38
2022-08-18T09:18:05.733Z,10.25
2022-08-18T09:20:49.692Z,11.00
2022-08-18T09:23:19.414Z,9.27
2022-08-18T09:25:49.450Z,9.32
2022-08-18T09:28:19.391Z,8.40
2022-08-18T09:30:55.142Z,9.65
2022-08-18T09:33:33.889Z,8.70
2022-08-18T09:36:33.406Z,8.80
2022-08-18T09:39:24.609Z,9.13
2022-08-18T09:41:54.404Z,8.88
2022-08-18T09:48:28.199Z,9.45
2022-08-18T09:51:33.339Z,10.35
2022-08-18T09:54:20.843Z,13.38
2022-08-18T09:57:07.786Z,8.77
2022-08-18T09:59:56.798Z,8.10
2022-08-18T10:03:10.222Z,8.00
2022-08-18T10:05:39.709Z,7.47
2022-08-18T10:08:37.554Z,7.28
2022-08-18T10:11:23.181Z,6.20
2022-08-18T10:14:14.328Z,5.90
2022-08-18T10:19:53.021Z,7.00
2022-08-18T10:25:22.639Z,7.97
2022-08-18T10:27:54.835Z,7.00
2022-08-18T10:31:05.910Z,7.18
2022-08-18T10:33:57.432Z,6.80
2022-08-18T10:36:40.617Z,6.90
2022-08-18T10:39:13.685Z,6.10
2022-08-18T10:41:55.016Z,6.85
2022-08-18T10:44:29.247Z,6.30
2022-08-18T10:46:59.326Z,7.53
2022-08-18T10:49:27.944Z,6.60
2022-08-18T10:52:22.803Z,6.65
2022-08-18T10:55:26.633Z,7.28
2022-08-18T10:58:28.183Z,6.45
2022-08-18T11:01:08.757Z,6.20
2022-08-18T11:03:51.497Z,6.53
2022-08-18T11:06:24.697Z,7.63
2022-08-18T11:08:55.342Z,6.07
2022-08-18T11:11:32.996Z,5.63
2022-08-18T11:14:16.586Z,5.60
2022-08-18T11:16:49.716Z,6.28
2022-08-18T11:19:23.242Z,5.90
2022-08-18T11:21:52.175Z,6.35
2022-08-18T11:24:21.958Z,6.35
2022-08-18T11:26:53.607Z,6.00
2022-08-18T11:29:26.825Z,5.97
2022-08-18T11:31:59.606Z,5.15
2022-08-18T11:34:33.140Z,5.00
2022-08-18T11:37:02.763Z,5.32
2022-08-18T11:39:44.000Z,5.38
2022-08-18T11:42:15.953Z,4.85
2022-08-18T11:44:54.959Z,5.43
2022-08-18T11:47:23.613Z,5.15
2022-08-18T11:49:58.765Z,4.97
2022-08-18T11:52:34.449Z,5.20
2022-08-18T11:55:14.815Z,4.55
2022-08-18T11:57:54.386Z,5.63
2022-08-18T12:00:57.225Z,4.82
2022-08-18T12:03:32.334Z,5.07
2022-08-18T12:06:03.119Z,5.97
2022-08-18T12:11:28.143Z,5.28
2022-08-18T12:14:29.862Z,5.25
2022-08-18T12:16:54.139Z,5.32
2022-08-18T12:19:23.453Z,4.60
2022-08-18T12:21:54.631Z,5.25
2022-08-18T12:24:26.321Z,5.03
2022-08-18T12:27:00.807Z,5.55
2022-08-18T12:29:36.612Z,5.53
2022-08-18T12:32:18.095Z,4.72
2022-08-18T12:35:05.289Z,5.40
2022-08-18T12:37:58.124Z,4.97
2022-08-18T12:40:23.169Z,5.90
2022-08-18T12:42:51.177Z,5.55
2022-08-18T12:45:18.740Z,5.68
2022-08-18T12:47:48.327Z,5.80
2022-08-18T12:50:16.221Z,6.50
2022-08-18T12:52:44.167Z,6.60
2022-08-18T12:55:22.099Z,6.20
2022-08-18T13:00:37.396Z,6.25
2022-08-18T13:03:06.171Z,6.40
2022-08-18T13:05:35.201Z,6.18
2022-08-18T13:08:06.809Z,6.78
2022-08-18T13:10:45.647Z,6.22
2022-08-18T13:13:15.050Z,7.05
2022-08-18T13:15:44.541Z,8.93
2022-08-18T13:18:27.285Z,6.93
2022-08-18T13:20:56.991Z,6.40
2022-08-18T13:23:25.300Z,6.35
2022-08-18T13:25:59.480Z,5.97
2022-08-18T13:28:30.628Z,5.30
2022-08-18T13:31:02.110Z,5.60
2022-08-18T13:33:56.055Z,5.70
2022-08-18T13:36:20.361Z,5.53
2022-08-18T13:38:52.351Z,5.72
2022-08-18T13:43:52.438Z,5.75
2022-08-18T13:46:24.188Z,6.53
2022-08-18T13:48:59.932Z,6.57
2022-08-18T13:51:29.242Z,6.07
2022-08-18T13:54:17.904Z,6.28
2022-08-18T13:56:51.792Z,6.28
2022-08-18T13:59:20.795Z,5.63
2022-08-18T14:01:51.849Z,6.40
2022-08-18T14:04:27.768Z,6.60
2022-08-18T14:06:59.708Z,6.32
2022-08-18T14:09:37.329Z,6.32
2022-08-18T14:12:15.688Z,6.82
2022-08-18T14:14:52.017Z,7.28
2022-08-18T14:17:20.031Z,7.78
2022-08-18T14:20:22.413Z,7.53
2022-08-18T14:23:22.825Z,8.60
2022-08-18T14:26:09.631Z,8.90
2022-08-18T14:28:38.300Z,7.78
2022-08-18T14:31:08.744Z,8.57
2022-08-18T14:33:51.114Z,10.30
2022-08-18T14:38:57.815Z,8.00
2022-08-18T14:41:25.530Z,8.50
2022-08-18T14:44:12.122Z,9.30
2022-08-18T14:46:42.029Z,11.77
2022-08-18T14:49:28.266Z,10.35
2022-08-18T14:51:59.139Z,9.13
2022-08-18T14:54:28.336Z,8.05
2022-08-18T14:56:57.332Z,8.90
2022-08-18T14:59:25.488Z,8.05
2022-08-18T15:01:53.551Z,8.15
2022-08-18T15:04:21.054Z,7.82
2022-08-18T15:06:56.288Z,7.93
2022-08-18T15:09:26.930Z,8.30
2022-08-18T15:11:55.860Z,9.25
2022-08-18T15:14:26.558Z,10.38
2022-08-18T15:17:00.908Z,13.48
2022-08-18T15:19:37.814Z,13.52
2022-08-18T15:22:33.287Z,13.57
2022-08-18T15:25:24.022Z,11.07
2022-08-18T15:27:52.577Z,7.68
2022-08-18T15:30:21.592Z,7.03
2022-08-18T15:32:50.064Z,6.82
2022-08-18T15:35:19.466Z,6.93
2022-08-18T15:37:51.450Z,6.85
2022-08-18T15:40:30.987Z,7.32
2022-08-18T15:43:09.980Z,7.53
2022-08-18T15:45:43.449Z,7.28
2022-08-18T15:48:24.924Z,6.95
2022-08-18T15:50:52.776Z,7.20
2022-08-18T15:53:22.813Z,6.90
2022-08-18T15:55:51.547Z,7.00
2022-08-18T15:58:22.455Z,7.28
2022-08-18T16:00:54.457Z,7.47
2022-08-18T16:03:22.053Z,7.32
2022-08-18T16:05:52.687Z,7.85
2022-08-18T16:08:22.031Z,7.80
2022-08-18T16:10:51.635Z,8.73
2022-08-18T16:13:19.305Z,10.98
2022-08-18T16:15:48.304Z,15.88
2022-08-18T16:18:17.127Z,15.38
2022-08-18T16:20:45.032Z,12.35
2022-08-18T16:23:12.969Z,14.95
2022-08-18T16:25:40.888Z,16.13
2022-08-18T16:28:10.063Z,17.33
2022-08-18T16:30:37.448Z,14.45
2022-08-18T16:33:07.058Z,13.02
2022-08-18T16:35:35.067Z,10.82
2022-08-18T16:38:04.365Z,12.48
2022-08-18T16:40:31.753Z,11.98
2022-08-18T16:43:00.510Z,14.30
2022-08-18T16:45:29.774Z,15.85
2022-08-18T16:47:57.360Z,15.88
2022-08-18T16:50:25.363Z,16.90
2022-08-18T16:52:53.303Z,19.23
2022-08-18T16:55:21.314Z,18.58
2022-08-18T16:58:06.783Z,18.85
2022-08-18T17:00:55.282Z,19.73
2022-08-18T17:03:40.849Z,19.75
2022-08-18T17:06:10.721Z,18.25
2022-08-18T17:08:38.954Z,18.65
2022-08-18T17:11:09.558Z,17.63
2022-08-18T17:13:38.492Z,17.05
2022-08-18T17:16:07.967Z,17.92
2022-08-18T17:18:36.044Z,18.48
2022-08-18T17:21:04.269Z,17.55
2022-08-18T17:23:31.670Z,17.50
2022-08-18T17:26:00.091Z,17.50
2022-08-18T17:28:35.089Z,17.55
2022-08-18T17:31:02.949Z,17.70
2022-08-18T17:33:34.196Z,18.02
2022-08-18T17:36:05.959Z,16.95
2022-08-18T17:38:37.318Z,17.55
2022-08-18T17:41:06.111Z,17.73
2022-08-18T17:43:35.374Z,17.48
2022-08-18T17:46:06.446Z,16.63
2022-08-18T17:48:40.805Z,17.48
2022-08-18T17:51:29.313Z,16.55
2022-08-18T17:54:01.232Z,16.75
2022-08-18T17:56:35.452Z,17.88
2022-08-18T17:59:45.473Z,16.38
2022-08-18T18:02:09.282Z,16.97
2022-08-18T18:04:58.281Z,16.00
2022-08-18T18:07:29.546Z,17.10
2022-08-18T18:10:00.667Z,16.40
2022-08-18T18:12:30.121Z,16.67
2022-08-18T18:14:58.375Z,16.13
2022-08-18T18:17:28.203Z,15.68
2022-08-18T18:20:12.190Z,15.10
2022-08-18T18:22:45.178Z,15.18
2022-08-18T18:25:14.116Z,15.10
2022-08-18T18:27:47.439Z,16.25
2022-08-18T18:30:28.066Z,15.43
2022-08-18T18:32:59.960Z,15.75
2022-08-18T18:35:30.823Z,15.20
2022-08-18T18:38:03.468Z,15.60
2022-08-18T18:40:34.622Z,15.00
2022-08-18T18:43:24.812Z,15.98
2022-08-18T18:46:15.463Z,14.95
2022-08-18T18:48:52.187Z,15.68
2022-08-18T18:51:33.712Z,14.68
2022-08-18T18:54:13.553Z,14.83
2022-08-18T18:56:45.322Z,14.68
2022-08-18T18:59:21.645Z,14.88
2022-08-18T19:01:56.421Z,14.85
2022-08-18T19:04:28.459Z,15.77
2022-08-18T19:07:02.668Z,14.55
2022-08-18T19:09:34.859Z,15.23
2022-08-18T19:12:11.096Z,14.88
2022-08-18T19:14:40.968Z,16.05
2022-08-18T19:17:13.273Z,14.02
2022-08-18T19:19:45.578Z,14.48
2022-08-18T19:22:19.176Z,14.50
2022-08-18T19:24:54.920Z,15.02
2022-08-18T19:27:28.431Z,14.73
2022-08-18T19:30:00.364Z,15.55
2022-08-18T19:32:35.387Z,15.05
2022-08-18T19:35:12.291Z,14.70
2022-08-18T19:38:02.014Z,14.73
2022-08-18T19:40:38.548Z,14.93
2022-08-18T19:43:12.314Z,14.88
2022-08-18T19:48:18.120Z,15.20
2022-08-18T19:50:49.019Z,17.05
2022-08-18T19:53:30.475Z,16.63
2022-08-18T19:56:12.332Z,15.52
2022-08-18T19:59:19.505Z,15.30
2022-08-18T20:01:55.171Z,16.05
2022-08-18T20:04:34.952Z,15.30
2022-08-18T20:07:15.948Z,15.15
2022-08-18T20:10:08.841Z,15.02
2022-08-18T20:12:48.144Z,16.60
2022-08-18T20:15:18.624Z,15.05
2022-08-18T20:18:04.863Z,15.98
2022-08-18T20:20:34.410Z,15.45
2022-08-18T20:23:02.076Z,17.20
2022-08-18T20:25:41.435Z,16.42
2022-08-18T20:28:26.042Z,15.77
2022-08-18T20:31:01.707Z,15.80
2022-08-18T20:33:34.377Z,15.75
2022-08-18T20:36:11.998Z,15.15
2022-08-18T20:38:42.068Z,15.57
2022-08-18T20:41:34.118Z,16.25
2022-08-18T20:44:21.838Z,17.13
2022-08-18T20:47:07.392Z,16.83
2022-08-18T20:49:39.717Z,16.40
2022-08-18T20:52:14.032Z,16.33
2022-08-18T20:54:57.493Z,17.00
2022-08-18T20:57:29.832Z,16.25
2022-08-18T21:00:05.716Z,16.45
2022-08-18T21:02:40.621Z,16.50
2022-08-18T21:05:10.498Z,15.90
2022-08-18T21:07:59.099Z,15.55
2022-08-18T21:10:29.689Z,17.08
2022-08-18T21:12:59.622Z,15.68
2022-08-18T21:15:29.151Z,14.35
2022-08-18T21:18:01.390Z,13.85
2022-08-18T21:20:29.713Z,15.82
2022-08-18T21:23:08.696Z,15.18
2022-08-18T21:25:36.368Z,15.30
2022-08-18T21:28:06.030Z,14.10
2022-08-18T21:30:34.235Z,15.02
2022-08-18T21:33:02.059Z,14.25
2022-08-18T21:35:31.904Z,14.93
2022-08-18T21:38:01.227Z,14.90
2022-08-18T21:40:31.909Z,15.73
2022-08-18T21:42:59.433Z,15.43
2022-08-18T21:45:29.199Z,14.20
2022-08-18T21:47:57.852Z,14.63
2022-08-18T21:50:26.792Z,13.85
2022-08-18T21:52:56.334Z,13.48
2022-08-18T21:55:30.135Z,14.23
2022-08-18T22:00:33.866Z,15.00
2022-08-18T22:03:20.532Z,14.45
2022-08-18T22:06:02.124Z,15.48
2022-08-18T22:08:32.186Z,14.48
2022-08-18T22:12:01.156Z,13.93
2022-08-18T22:14:35.957Z,14.75
2022-08-18T22:17:31.611Z,14.63
2022-08-18T22:20:35.881Z,14.90
2022-08-18T22:23:25.016Z,15.15
2022-08-18T22:25:52.607Z,14.35
2022-08-18T22:28:23.996Z,14.43
2022-08-18T22:30:54.862Z,14.93
2022-08-18T22:33:23.680Z,14.48
2022-08-18T22:35:54.679Z,14.38
2022-08-18T22:38:22.204Z,14.02
2022-08-18T22:40:49.928Z,14.13
2022-08-18T22:43:18.319Z,14.77
2022-08-18T22:45:45.817Z,14.45
2022-08-18T22:48:16.480Z,14.95
2022-08-18T22:50:46.188Z,14.70
2022-08-18T22:53:14.980Z,14.57
2022-08-18T22:55:42.434Z,13.90
2022-08-18T22:58:09.883Z,14.90
2022-08-18T23:00:38.803Z,13.95
2022-08-18T23:03:08.165Z,13.75
2022-08-18T23:05:35.589Z,13.60
2022-08-18T23:08:04.625Z,15.40
2022-08-18T23:10:32.216Z,14.05
2022-08-18T23:13:03.743Z,14.25
2022-08-18T23:15:48.189Z,13.15
2022-08-18T23:18:19.059Z,14.20
2022-08-18T23:20:48.782Z,13.70
2022-08-18T23:23:18.773Z,14.27
2022-08-18T23:25:50.410Z,14.68
2022-08-18T23:28:19.182Z,14.77
2022-08-18T23:30:47.217Z,16.08
2022-08-18T23:33:15.523Z,15.70
2022-08-18T23:35:44.192Z,14.30
2022-08-18T23:38:13.107Z,15.18
2022-08-18T23:40:44.980Z,14.70
2022-08-18T23:43:12.399Z,14.77
2022-08-18T23:45:42.712Z,15.57
2022-08-18T23:48:13.217Z,15.60
2022-08-18T23:50:41.908Z,14.23
2022-08-18T23:53:10.097Z,14.38
2022-08-18T23:55:37.572Z,15.18
2022-08-18T23:58:07.407Z,14.43
